sensor_id;sensor_type;location;lat;lon;timestamp;temperature;humidity
47354;DHT22;50657;48.830;2.282;2022-12-07T00:01:45;19.60;43.00
47354;DHT22;50657;48.830;2.282;2022-12-07T00:04:14;19.60;43.10
47354;DHT22;50657;48.830;2.282;2022-12-07T00:06:44;19.60;43.20
47354;DHT22;50657;48.830;2.282;2022-12-07T00:09:13;19.50;43.20
47354;DHT22;50657;48.830;2.282;2022-12-07T00:11:40;19.50;43.40
47354;DHT22;50657;48.830;2.282;2022-12-07T00:14:11;19.50;44.00
47354;DHT22;50657;48.830;2.282;2022-12-07T00:16:38;19.40;43.90
47354;DHT22;50657;48.830;2.282;2022-12-07T00:19:06;19.40;43.50
47354;DHT22;50657;48.830;2.282;2022-12-07T00:21:34;19.40;43.50
47354;DHT22;50657;48.830;2.282;2022-12-07T00:24:04;19.30;43.50
47354;DHT22;50657;48.830;2.282;2022-12-07T00:26:33;19.30;43.50
47354;DHT22;50657;48.830;2.282;2022-12-07T00:29:03;19.30;43.50
47354;DHT22;50657;48.830;2.282;2022-12-07T00:31:36;19.20;43.40
47354;DHT22;50657;48.830;2.282;2022-12-07T00:34:04;19.20;43.50
47354;DHT22;50657;48.830;2.282;2022-12-07T00:36:32;19.10;43.50
47354;DHT22;50657;48.830;2.282;2022-12-07T00:39:00;19.10;43.60
47354;DHT22;50657;48.830;2.282;2022-12-07T00:41:29;19.10;43.80
47354;DHT22;50657;48.830;2.282;2022-12-07T00:43:57;19.00;43.70
47354;DHT22;50657;48.830;2.282;2022-12-07T00:46:24;19.00;43.90
47354;DHT22;50657;48.830;2.282;2022-12-07T00:48:52;19.00;44.00
47354;DHT22;50657;48.830;2.282;2022-12-07T00:51:22;18.90;43.90
47354;DHT22;50657;48.830;2.282;2022-12-07T00:53:49;18.90;43.90
47354;DHT22;50657;48.830;2.282;2022-12-07T00:56:18;18.80;43.90
47354;DHT22;50657;48.830;2.282;2022-12-07T00:58:52;18.90;44.00
47354;DHT22;50657;48.830;2.282;2022-12-07T01:01:19;18.90;44.00
47354;DHT22;50657;48.830;2.282;2022-12-07T01:03:46;18.80;43.90
47354;DHT22;50657;48.830;2.282;2022-12-07T01:06:15;18.80;43.90
47354;DHT22;50657;48.830;2.282;2022-12-07T01:08:42;18.70;43.90
47354;DHT22;50657;48.830;2.282;2022-12-07T01:11:12;18.70;44.10
47354;DHT22;50657;48.830;2.282;2022-12-07T01:13:40;18.70;44.70
47354;DHT22;50657;48.830;2.282;2022-12-07T01:16:12;18.60;44.20
47354;DHT22;50657;48.830;2.282;2022-12-07T01:18:39;18.70;44.30
47354;DHT22;50657;48.830;2.282;2022-12-07T01:21:09;18.60;44.30
47354;DHT22;50657;48.830;2.282;2022-12-07T01:23:37;18.60;44.30
47354;DHT22;50657;48.830;2.282;2022-12-07T01:26:07;18.60;44.30
47354;DHT22;50657;48.830;2.282;2022-12-07T01:28:36;18.60;44.30
47354;DHT22;50657;48.830;2.282;2022-12-07T01:31:04;18.60;44.60
47354;DHT22;50657;48.830;2.282;2022-12-07T01:33:36;18.50;44.80
47354;DHT22;50657;48.830;2.282;2022-12-07T01:36:04;18.50;44.90
47354;DHT22;50657;48.830;2.282;2022-12-07T01:38:32;18.50;44.70
47354;DHT22;50657;48.830;2.282;2022-12-07T01:41:00;18.50;44.80
47354;DHT22;50657;48.830;2.282;2022-12-07T01:43:29;18.50;44.70
47354;DHT22;50657;48.830;2.282;2022-12-07T01:45:57;18.50;44.70
47354;DHT22;50657;48.830;2.282;2022-12-07T01:48:27;18.50;44.50
47354;DHT22;50657;48.830;2.282;2022-12-07T01:51:02;18.50;44.60
47354;DHT22;50657;48.830;2.282;2022-12-07T01:53:32;18.50;44.50
47354;DHT22;50657;48.830;2.282;2022-12-07T01:56:01;18.40;44.40
47354;DHT22;50657;48.830;2.282;2022-12-07T01:58:28;18.40;44.50
47354;DHT22;50657;48.830;2.282;2022-12-07T02:00:56;18.40;44.40
47354;DHT22;50657;48.830;2.282;2022-12-07T02:03:29;18.40;44.30
47354;DHT22;50657;48.830;2.282;2022-12-07T02:05:59;18.40;44.10
47354;DHT22;50657;48.830;2.282;2022-12-07T02:08:26;18.40;44.00
47354;DHT22;50657;48.830;2.282;2022-12-07T02:10:54;18.30;43.90
47354;DHT22;50657;48.830;2.282;2022-12-07T02:13:26;18.30;43.90
47354;DHT22;50657;48.830;2.282;2022-12-07T02:16:08;18.30;44.00
47354;DHT22;50657;48.830;2.282;2022-12-07T02:18:48;18.30;44.00
47354;DHT22;50657;48.830;2.282;2022-12-07T02:21:27;18.30;44.10
47354;DHT22;50657;48.830;2.282;2022-12-07T02:24:20;18.30;44.30
47354;DHT22;50657;48.830;2.282;2022-12-07T02:27:08;18.30;44.30
47354;DHT22;50657;48.830;2.282;2022-12-07T02:29:41;18.20;44.20
47354;DHT22;50657;48.830;2.282;2022-12-07T02:32:14;18.20;44.30
47354;DHT22;50657;48.830;2.282;2022-12-07T02:34:48;18.20;44.30
47354;DHT22;50657;48.830;2.282;2022-12-07T02:37:26;18.20;44.20
47354;DHT22;50657;48.830;2.282;2022-12-07T02:40:01;18.20;44.30
47354;DHT22;50657;48.830;2.282;2022-12-07T02:42:34;18.20;44.20
47354;DHT22;50657;48.830;2.282;2022-12-07T02:45:07;18.10;44.20
47354;DHT22;50657;48.830;2.282;2022-12-07T02:47:36;18.10;44.00
47354;DHT22;50657;48.830;2.282;2022-12-07T02:50:05;18.10;43.90
47354;DHT22;50657;48.830;2.282;2022-12-07T02:52:32;18.10;44.00
47354;DHT22;50657;48.830;2.282;2022-12-07T02:54:59;18.00;43.90
47354;DHT22;50657;48.830;2.282;2022-12-07T03:00:21;18.00;44.20
47354;DHT22;50657;48.830;2.282;2022-12-07T03:02:53;18.00;44.80
47354;DHT22;50657;48.830;2.282;2022-12-07T03:05:32;18.00;44.40
47354;DHT22;50657;48.830;2.282;2022-12-07T03:08:04;18.00;44.40
47354;DHT22;50657;48.830;2.282;2022-12-07T03:10:39;17.90;44.40
47354;DHT22;50657;48.830;2.282;2022-12-07T03:13:11;17.90;44.20
47354;DHT22;50657;48.830;2.282;2022-12-07T03:15:45;17.90;44.30
47354;DHT22;50657;48.830;2.282;2022-12-07T03:18:15;17.90;44.30
47354;DHT22;50657;48.830;2.282;2022-12-07T03:20:44;17.80;44.10
47354;DHT22;50657;48.830;2.282;2022-12-07T03:23:12;17.80;44.20
47354;DHT22;50657;48.830;2.282;2022-12-07T03:25:45;17.80;44.40
47354;DHT22;50657;48.830;2.282;2022-12-07T03:28:17;17.80;44.30
47354;DHT22;50657;48.830;2.282;2022-12-07T03:30:51;17.80;44.40
47354;DHT22;50657;48.830;2.282;2022-12-07T03:33:25;17.80;44.40
47354;DHT22;50657;48.830;2.282;2022-12-07T03:36:01;17.80;44.40
47354;DHT22;50657;48.830;2.282;2022-12-07T03:38:35;17.80;44.50
47354;DHT22;50657;48.830;2.282;2022-12-07T03:41:05;17.70;44.30
47354;DHT22;50657;48.830;2.282;2022-12-07T03:43:34;17.70;44.40
47354;DHT22;50657;48.830;2.282;2022-12-07T03:46:09;17.70;44.40
47354;DHT22;50657;48.830;2.282;2022-12-07T03:48:47;17.70;44.50
47354;DHT22;50657;48.830;2.282;2022-12-07T03:51:21;17.70;44.70
47354;DHT22;50657;48.830;2.282;2022-12-07T03:53:53;17.70;44.60
47354;DHT22;50657;48.830;2.282;2022-12-07T03:56:22;17.70;44.60
47354;DHT22;50657;48.830;2.282;2022-12-07T03:58:51;17.70;45.20
47354;DHT22;50657;48.830;2.282;2022-12-07T04:01:20;17.70;44.70
47354;DHT22;50657;48.830;2.282;2022-12-07T04:03:47;17.60;44.70
47354;DHT22;50657;48.830;2.282;2022-12-07T04:06:14;17.60;44.60
47354;DHT22;50657;48.830;2.282;2022-12-07T04:08:41;17.60;44.70
47354;DHT22;50657;48.830;2.282;2022-12-07T04:11:08;17.60;44.70
47354;DHT22;50657;48.830;2.282;2022-12-07T04:13:35;17.60;44.70
47354;DHT22;50657;48.830;2.282;2022-12-07T04:16:23;17.60;44.70
47354;DHT22;50657;48.830;2.282;2022-12-07T04:18:50;17.60;44.70
47354;DHT22;50657;48.830;2.282;2022-12-07T04:21:17;17.60;44.70
47354;DHT22;50657;48.830;2.282;2022-12-07T04:23:44;17.60;44.80
47354;DHT22;50657;48.830;2.282;2022-12-07T04:26:11;17.50;44.70
47354;DHT22;50657;48.830;2.282;2022-12-07T04:28:38;17.50;44.90
47354;DHT22;50657;48.830;2.282;2022-12-07T04:31:05;17.50;44.90
47354;DHT22;50657;48.830;2.282;2022-12-07T04:33:35;17.50;44.90
47354;DHT22;50657;48.830;2.282;2022-12-07T04:36:02;17.50;44.80
47354;DHT22;50657;48.830;2.282;2022-12-07T04:38:29;17.50;44.80
47354;DHT22;50657;48.830;2.282;2022-12-07T04:40:56;17.50;44.80
47354;DHT22;50657;48.830;2.282;2022-12-07T04:43:23;17.50;44.80
47354;DHT22;50657;48.830;2.282;2022-12-07T04:45:50;17.50;45.00
47354;DHT22;50657;48.830;2.282;2022-12-07T04:48:17;17.50;45.00
47354;DHT22;50657;48.830;2.282;2022-12-07T04:50:47;17.50;44.90
47354;DHT22;50657;48.830;2.282;2022-12-07T04:53:15;17.50;44.90
47354;DHT22;50657;48.830;2.282;2022-12-07T04:55:42;17.50;45.40
47354;DHT22;50657;48.830;2.282;2022-12-07T04:58:10;17.50;44.90
47354;DHT22;50657;48.830;2.282;2022-12-07T05:00:37;17.50;44.90
47354;DHT22;50657;48.830;2.282;2022-12-07T05:03:04;17.50;45.10
47354;DHT22;50657;48.830;2.282;2022-12-07T05:05:31;17.50;45.00
47354;DHT22;50657;48.830;2.282;2022-12-07T05:07:59;17.50;45.00
47354;DHT22;50657;48.830;2.282;2022-12-07T05:10:26;17.50;44.90
47354;DHT22;50657;48.830;2.282;2022-12-07T05:12:53;17.50;45.00
47354;DHT22;50657;48.830;2.282;2022-12-07T05:15:20;17.60;44.90
47354;DHT22;50657;48.830;2.282;2022-12-07T05:17:47;17.50;44.90
47354;DHT22;50657;48.830;2.282;2022-12-07T05:20:15;17.50;44.80
47354;DHT22;50657;48.830;2.282;2022-12-07T05:22:42;17.60;44.70
47354;DHT22;50657;48.830;2.282;2022-12-07T05:25:10;17.50;44.60
47354;DHT22;50657;48.830;2.282;2022-12-07T05:27:37;17.60;44.70
47354;DHT22;50657;48.830;2.282;2022-12-07T05:30:05;17.60;44.70
47354;DHT22;50657;48.830;2.282;2022-12-07T05:32:32;17.60;44.80
47354;DHT22;50657;48.830;2.282;2022-12-07T05:35:00;17.50;44.70
47354;DHT22;50657;48.830;2.282;2022-12-07T05:37:27;17.50;45.20
47354;DHT22;50657;48.830;2.282;2022-12-07T05:39:54;17.50;44.70
47354;DHT22;50657;48.830;2.282;2022-12-07T05:42:22;17.60;44.70
47354;DHT22;50657;48.830;2.282;2022-12-07T05:44:49;17.60;44.70
47354;DHT22;50657;48.830;2.282;2022-12-07T05:47:16;17.60;44.80
47354;DHT22;50657;48.830;2.282;2022-12-07T05:49:43;17.60;44.70
47354;DHT22;50657;48.830;2.282;2022-12-07T05:52:11;17.50;44.70
47354;DHT22;50657;48.830;2.282;2022-12-07T05:54:38;17.60;44.70
47354;DHT22;50657;48.830;2.282;2022-12-07T05:57:05;17.60;44.60
47354;DHT22;50657;48.830;2.282;2022-12-07T05:59:33;17.50;44.50
47354;DHT22;50657;48.830;2.282;2022-12-07T06:02:01;17.50;44.70
47354;DHT22;50657;48.830;2.282;2022-12-07T06:04:31;17.50;44.70
47354;DHT22;50657;48.830;2.282;2022-12-07T06:06:58;17.50;44.70
47354;DHT22;50657;48.830;2.282;2022-12-07T06:09:27;17.50;44.70
47354;DHT22;50657;48.830;2.282;2022-12-07T06:11:55;17.60;44.80
47354;DHT22;50657;48.830;2.282;2022-12-07T06:14:40;17.50;44.60
47354;DHT22;50657;48.830;2.282;2022-12-07T06:17:08;17.50;44.60
47354;DHT22;50657;48.830;2.282;2022-12-07T06:19:35;17.60;44.70
47354;DHT22;50657;48.830;2.282;2022-12-07T06:22:03;17.60;44.70
47354;DHT22;50657;48.830;2.282;2022-12-07T06:24:31;17.60;44.70
47354;DHT22;50657;48.830;2.282;2022-12-07T06:26:58;17.60;44.70
47354;DHT22;50657;48.830;2.282;2022-12-07T06:29:25;17.50;44.60
47354;DHT22;50657;48.830;2.282;2022-12-07T06:31:54;17.60;44.50
47354;DHT22;50657;48.830;2.282;2022-12-07T06:34:22;17.60;44.60
47354;DHT22;50657;48.830;2.282;2022-12-07T06:36:50;17.60;44.60
47354;DHT22;50657;48.830;2.282;2022-12-07T06:39:22;17.60;44.50
47354;DHT22;50657;48.830;2.282;2022-12-07T06:41:49;17.60;44.50
47354;DHT22;50657;48.830;2.282;2022-12-07T06:44:17;17.60;44.50
47354;DHT22;50657;48.830;2.282;2022-12-07T06:46:45;17.60;44.40
47354;DHT22;50657;48.830;2.282;2022-12-07T06:49:13;17.60;44.50
47354;DHT22;50657;48.830;2.282;2022-12-07T06:51:40;17.60;44.40
47354;DHT22;50657;48.830;2.282;2022-12-07T06:54:07;17.60;44.40
47354;DHT22;50657;48.830;2.282;2022-12-07T06:56:35;17.60;44.50
47354;DHT22;50657;48.830;2.282;2022-12-07T06:59:03;17.60;44.70
47354;DHT22;50657;48.830;2.282;2022-12-07T07:01:31;17.60;44.90
47354;DHT22;50657;48.830;2.282;2022-12-07T07:03:58;17.60;45.00
47354;DHT22;50657;48.830;2.282;2022-12-07T07:06:26;17.60;45.20
47354;DHT22;50657;48.830;2.282;2022-12-07T07:08:53;17.60;45.30
47354;DHT22;50657;48.830;2.282;2022-12-07T07:11:20;17.60;45.60
47354;DHT22;50657;48.830;2.282;2022-12-07T07:13:47;17.60;45.90
47354;DHT22;50657;48.830;2.282;2022-12-07T07:16:15;17.60;46.00
47354;DHT22;50657;48.830;2.282;2022-12-07T07:18:42;17.60;46.40
47354;DHT22;50657;48.830;2.282;2022-12-07T07:21:09;17.60;46.70
47354;DHT22;50657;48.830;2.282;2022-12-07T07:23:37;17.60;46.80
47354;DHT22;50657;48.830;2.282;2022-12-07T07:26:04;17.70;46.90
47354;DHT22;50657;48.830;2.282;2022-12-07T07:28:31;17.60;47.10
47354;DHT22;50657;48.830;2.282;2022-12-07T07:30:58;17.60;47.30
47354;DHT22;50657;48.830;2.282;2022-12-07T07:33:25;17.60;48.20
47354;DHT22;50657;48.830;2.282;2022-12-07T07:35:52;17.70;47.80
47354;DHT22;50657;48.830;2.282;2022-12-07T07:38:19;17.60;47.90
47354;DHT22;50657;48.830;2.282;2022-12-07T07:40:48;17.70;48.00
47354;DHT22;50657;48.830;2.282;2022-12-07T07:43:15;17.60;48.10
47354;DHT22;50657;48.830;2.282;2022-12-07T07:45:42;17.60;48.20
47354;DHT22;50657;48.830;2.282;2022-12-07T07:48:09;17.60;48.20
47354;DHT22;50657;48.830;2.282;2022-12-07T07:50:36;17.60;48.30
47354;DHT22;50657;48.830;2.282;2022-12-07T07:53:03;17.60;48.40
47354;DHT22;50657;48.830;2.282;2022-12-07T07:55:30;17.60;48.60
47354;DHT22;50657;48.830;2.282;2022-12-07T07:57:58;17.60;48.60
47354;DHT22;50657;48.830;2.282;2022-12-07T08:00:26;17.60;48.90
47354;DHT22;50657;48.830;2.282;2022-12-07T08:02:53;17.60;48.70
47354;DHT22;50657;48.830;2.282;2022-12-07T08:05:20;17.60;48.80
47354;DHT22;50657;48.830;2.282;2022-12-07T08:07:47;17.60;49.00
47354;DHT22;50657;48.830;2.282;2022-12-07T08:10:14;17.60;49.50
47354;DHT22;50657;48.830;2.282;2022-12-07T08:12:42;17.60;49.10
47354;DHT22;50657;48.830;2.282;2022-12-07T08:15:26;17.60;49.80
47354;DHT22;50657;48.830;2.282;2022-12-07T08:17:53;17.60;49.40
47354;DHT22;50657;48.830;2.282;2022-12-07T08:20:20;17.60;49.90
47354;DHT22;50657;48.830;2.282;2022-12-07T08:22:47;17.60;49.30
47354;DHT22;50657;48.830;2.282;2022-12-07T08:25:15;17.60;49.40
47354;DHT22;50657;48.830;2.282;2022-12-07T08:27:42;17.60;50.00
47354;DHT22;50657;48.830;2.282;2022-12-07T08:30:09;17.60;49.50
47354;DHT22;50657;48.830;2.282;2022-12-07T08:32:38;17.60;49.60
47354;DHT22;50657;48.830;2.282;2022-12-07T08:35:06;17.60;49.70
47354;DHT22;50657;48.830;2.282;2022-12-07T08:37:33;17.60;49.60
47354;DHT22;50657;48.830;2.282;2022-12-07T08:40:00;17.60;49.70
47354;DHT22;50657;48.830;2.282;2022-12-07T08:42:27;17.60;49.70
47354;DHT22;50657;48.830;2.282;2022-12-07T08:44:56;17.60;49.40
47354;DHT22;50657;48.830;2.282;2022-12-07T08:47:24;17.60;49.50
47354;DHT22;50657;48.830;2.282;2022-12-07T08:49:53;17.60;49.50
47354;DHT22;50657;48.830;2.282;2022-12-07T08:52:21;17.60;49.70
47354;DHT22;50657;48.830;2.282;2022-12-07T08:54:49;17.60;49.60
47354;DHT22;50657;48.830;2.282;2022-12-07T08:57:16;17.60;49.60
47354;DHT22;50657;48.830;2.282;2022-12-07T08:59:43;17.60;49.60
47354;DHT22;50657;48.830;2.282;2022-12-07T09:02:10;17.60;49.50
47354;DHT22;50657;48.830;2.282;2022-12-07T09:04:37;17.60;49.50
47354;DHT22;50657;48.830;2.282;2022-12-07T09:07:05;17.60;49.50
47354;DHT22;50657;48.830;2.282;2022-12-07T09:09:33;17.60;50.10
47354;DHT22;50657;48.830;2.282;2022-12-07T09:12:00;17.60;49.50
47354;DHT22;50657;48.830;2.282;2022-12-07T09:14:27;17.60;49.60
47354;DHT22;50657;48.830;2.282;2022-12-07T09:16:54;17.60;49.70
47354;DHT22;50657;48.830;2.282;2022-12-07T09:19:21;17.60;49.70
47354;DHT22;50657;48.830;2.282;2022-12-07T09:21:48;17.60;49.50
47354;DHT22;50657;48.830;2.282;2022-12-07T09:24:16;17.60;49.70
47354;DHT22;50657;48.830;2.282;2022-12-07T09:26:44;17.60;49.70
47354;DHT22;50657;48.830;2.282;2022-12-07T09:29:11;17.60;49.50
47354;DHT22;50657;48.830;2.282;2022-12-07T09:31:38;17.60;49.60
47354;DHT22;50657;48.830;2.282;2022-12-07T09:34:05;17.60;49.80
47354;DHT22;50657;48.830;2.282;2022-12-07T09:36:33;17.70;49.90
47354;DHT22;50657;48.830;2.282;2022-12-07T09:39:00;17.60;49.90
47354;DHT22;50657;48.830;2.282;2022-12-07T09:41:30;17.70;49.80
47354;DHT22;50657;48.830;2.282;2022-12-07T09:44:03;17.70;49.90
47354;DHT22;50657;48.830;2.282;2022-12-07T09:46:34;17.70;49.90
47354;DHT22;50657;48.830;2.282;2022-12-07T09:49:02;17.70;49.90
47354;DHT22;50657;48.830;2.282;2022-12-07T09:51:29;17.70;49.90
47354;DHT22;50657;48.830;2.282;2022-12-07T09:53:58;17.70;49.90
47354;DHT22;50657;48.830;2.282;2022-12-07T09:56:28;17.70;49.80
47354;DHT22;50657;48.830;2.282;2022-12-07T09:58:59;17.70;49.90
47354;DHT22;50657;48.830;2.282;2022-12-07T10:01:30;17.80;50.00
47354;DHT22;50657;48.830;2.282;2022-12-07T10:04:02;17.80;50.00
47354;DHT22;50657;48.830;2.282;2022-12-07T10:06:33;17.80;49.80
47354;DHT22;50657;48.830;2.282;2022-12-07T10:09:01;17.80;49.90
47354;DHT22;50657;48.830;2.282;2022-12-07T10:11:28;17.90;49.90
47354;DHT22;50657;48.830;2.282;2022-12-07T10:13:55;17.90;50.00
47354;DHT22;50657;48.830;2.282;2022-12-07T10:16:40;18.00;50.10
47354;DHT22;50657;48.830;2.282;2022-12-07T10:19:24;18.00;50.00
47354;DHT22;50657;48.830;2.282;2022-12-07T10:22:16;18.10;49.90
47354;DHT22;50657;48.830;2.282;2022-12-07T10:24:46;18.10;49.60
47354;DHT22;50657;48.830;2.282;2022-12-07T10:27:18;18.00;49.50
47354;DHT22;50657;48.830;2.282;2022-12-07T10:29:50;18.10;49.50
47354;DHT22;50657;48.830;2.282;2022-12-07T10:32:31;18.10;49.50
47354;DHT22;50657;48.830;2.282;2022-12-07T10:35:20;18.10;49.40
47354;DHT22;50657;48.830;2.282;2022-12-07T10:37:48;18.10;49.30
47354;DHT22;50657;48.830;2.282;2022-12-07T10:40:28;18.10;49.30
47354;DHT22;50657;48.830;2.282;2022-12-07T10:43:12;18.20;49.30
47354;DHT22;50657;48.830;2.282;2022-12-07T10:46:03;18.20;49.30
47354;DHT22;50657;48.830;2.282;2022-12-07T10:48:43;18.20;49.20
47354;DHT22;50657;48.830;2.282;2022-12-07T10:51:18;18.20;49.10
47354;DHT22;50657;48.830;2.282;2022-12-07T10:53:59;18.20;49.00
47354;DHT22;50657;48.830;2.282;2022-12-07T10:56:50;18.30;49.00
47354;DHT22;50657;48.830;2.282;2022-12-07T10:59:42;18.20;48.80
47354;DHT22;50657;48.830;2.282;2022-12-07T11:02:25;18.30;48.90
47354;DHT22;50657;48.830;2.282;2022-12-07T11:05:06;18.20;48.80
47354;DHT22;50657;48.830;2.282;2022-12-07T11:07:44;18.30;48.70
47354;DHT22;50657;48.830;2.282;2022-12-07T11:10:18;18.30;48.70
47354;DHT22;50657;48.830;2.282;2022-12-07T11:13:22;18.30;48.70
47354;DHT22;50657;48.830;2.282;2022-12-07T11:16:04;18.30;48.50
47354;DHT22;50657;48.830;2.282;2022-12-07T11:18:40;18.30;48.50
47354;DHT22;50657;48.830;2.282;2022-12-07T11:21:16;18.30;48.50
47354;DHT22;50657;48.830;2.282;2022-12-07T11:23:49;18.40;48.40
47354;DHT22;50657;48.830;2.282;2022-12-07T11:26:25;18.40;48.40
47354;DHT22;50657;48.830;2.282;2022-12-07T11:29:06;18.50;48.50
47354;DHT22;50657;48.830;2.282;2022-12-07T11:31:46;18.60;48.20
47354;DHT22;50657;48.830;2.282;2022-12-07T11:34:24;18.70;47.90
47354;DHT22;50657;48.830;2.282;2022-12-07T11:36:56;18.80;47.80
47354;DHT22;50657;48.830;2.282;2022-12-07T11:39:28;18.90;47.90
47354;DHT22;50657;48.830;2.282;2022-12-07T11:42:01;19.00;47.70
47354;DHT22;50657;48.830;2.282;2022-12-07T11:44:34;19.10;47.70
47354;DHT22;50657;48.830;2.282;2022-12-07T11:47:07;19.20;47.70
47354;DHT22;50657;48.830;2.282;2022-12-07T11:49:43;19.30;47.60
47354;DHT22;50657;48.830;2.282;2022-12-07T11:52:20;19.30;47.50
47354;DHT22;50657;48.830;2.282;2022-12-07T11:54:50;19.40;47.50
47354;DHT22;50657;48.830;2.282;2022-12-07T11:57:24;19.50;47.50
47354;DHT22;50657;48.830;2.282;2022-12-07T11:59:58;19.60;47.50
47354;DHT22;50657;48.830;2.282;2022-12-07T12:02:34;19.70;47.50
47354;DHT22;50657;48.830;2.282;2022-12-07T12:05:13;19.70;48.00
47354;DHT22;50657;48.830;2.282;2022-12-07T12:07:44;19.80;47.30
47354;DHT22;50657;48.830;2.282;2022-12-07T12:10:19;19.80;47.20
47354;DHT22;50657;48.830;2.282;2022-12-07T12:13:02;19.90;47.20
47354;DHT22;50657;48.830;2.282;2022-12-07T12:15:47;20.00;47.20
47354;DHT22;50657;48.830;2.282;2022-12-07T12:18:26;20.10;47.20
47354;DHT22;50657;48.830;2.282;2022-12-07T12:21:02;20.10;47.10
47354;DHT22;50657;48.830;2.282;2022-12-07T12:23:38;20.10;46.90
47354;DHT22;50657;48.830;2.282;2022-12-07T12:26:12;20.20;47.50
47354;DHT22;50657;48.830;2.282;2022-12-07T12:28:44;20.30;46.80
47354;DHT22;50657;48.830;2.282;2022-12-07T12:31:31;20.30;46.70
47354;DHT22;50657;48.830;2.282;2022-12-07T12:34:01;20.40;46.40
47354;DHT22;50657;48.830;2.282;2022-12-07T12:36:44;20.40;46.30
47354;DHT22;50657;48.830;2.282;2022-12-07T12:39:14;20.50;46.20
47354;DHT22;50657;48.830;2.282;2022-12-07T12:41:59;20.40;45.80
47354;DHT22;50657;48.830;2.282;2022-12-07T12:47:51;20.40;45.90
47354;DHT22;50657;48.830;2.282;2022-12-07T12:50:21;20.40;45.80
47354;DHT22;50657;48.830;2.282;2022-12-07T12:53:14;20.40;45.70
47354;DHT22;50657;48.830;2.282;2022-12-07T12:56:06;20.40;45.40
47354;DHT22;50657;48.830;2.282;2022-12-07T12:58:42;20.40;45.20
47354;DHT22;50657;48.830;2.282;2022-12-07T13:01:44;20.30;45.00
47354;DHT22;50657;48.830;2.282;2022-12-07T13:07:13;20.30;45.30
47354;DHT22;50657;48.830;2.282;2022-12-07T13:09:44;20.30;44.70
47354;DHT22;50657;48.830;2.282;2022-12-07T13:12:15;20.20;44.50
47354;DHT22;50657;48.830;2.282;2022-12-07T13:14:55;20.20;44.20
47354;DHT22;50657;48.830;2.282;2022-12-07T13:20:47;20.20;43.90
47354;DHT22;50657;48.830;2.282;2022-12-07T13:23:19;20.10;43.90
47354;DHT22;50657;48.830;2.282;2022-12-07T13:25:54;20.10;44.00
47354;DHT22;50657;48.830;2.282;2022-12-07T13:28:27;20.00;44.20
47354;DHT22;50657;48.830;2.282;2022-12-07T13:31:04;20.00;44.10
47354;DHT22;50657;48.830;2.282;2022-12-07T13:33:36;20.00;44.10
47354;DHT22;50657;48.830;2.282;2022-12-07T13:36:03;20.00;44.30
47354;DHT22;50657;48.830;2.282;2022-12-07T13:38:33;20.00;44.10
47354;DHT22;50657;48.830;2.282;2022-12-07T13:41:03;20.00;43.90
47354;DHT22;50657;48.830;2.282;2022-12-07T13:43:41;20.00;43.80
47354;DHT22;50657;48.830;2.282;2022-12-07T13:46:09;20.00;43.50
47354;DHT22;50657;48.830;2.282;2022-12-07T13:48:45;20.00;43.40
47354;DHT22;50657;48.830;2.282;2022-12-07T13:51:21;20.00;43.50
47354;DHT22;50657;48.830;2.282;2022-12-07T13:53:51;19.90;43.50
47354;DHT22;50657;48.830;2.282;2022-12-07T13:56:21;19.90;43.70
47354;DHT22;50657;48.830;2.282;2022-12-07T13:58:50;19.80;43.70
47354;DHT22;50657;48.830;2.282;2022-12-07T14:01:17;19.80;43.80
47354;DHT22;50657;48.830;2.282;2022-12-07T14:03:45;19.70;43.80
47354;DHT22;50657;48.830;2.282;2022-12-07T14:06:15;19.70;43.90
47354;DHT22;50657;48.830;2.282;2022-12-07T14:08:43;19.70;44.00
47354;DHT22;50657;48.830;2.282;2022-12-07T14:11:15;19.70;44.00
47354;DHT22;50657;48.830;2.282;2022-12-07T14:13:51;19.70;44.00
47354;DHT22;50657;48.830;2.282;2022-12-07T14:16:25;19.60;44.00
47354;DHT22;50657;48.830;2.282;2022-12-07T14:18:53;19.60;44.00
47354;DHT22;50657;48.830;2.282;2022-12-07T14:21:23;19.50;44.00
47354;DHT22;50657;48.830;2.282;2022-12-07T14:24:18;19.50;44.10
47354;DHT22;50657;48.830;2.282;2022-12-07T14:26:47;19.50;44.00
47354;DHT22;50657;48.830;2.282;2022-12-07T14:29:32;19.50;44.20
47354;DHT22;50657;48.830;2.282;2022-12-07T14:32:19;19.50;44.10
47354;DHT22;50657;48.830;2.282;2022-12-07T14:35:00;19.50;44.20
47354;DHT22;50657;48.830;2.282;2022-12-07T14:37:29;19.40;44.20
47354;DHT22;50657;48.830;2.282;2022-12-07T14:39:56;19.30;44.40
47354;DHT22;50657;48.830;2.282;2022-12-07T14:42:27;19.30;44.40
47354;DHT22;50657;48.830;2.282;2022-12-07T14:44:57;19.30;44.40
47354;DHT22;50657;48.830;2.282;2022-12-07T14:47:25;19.30;44.40
47354;DHT22;50657;48.830;2.282;2022-12-07T14:49:52;19.30;44.40
47354;DHT22;50657;48.830;2.282;2022-12-07T14:52:21;19.20;44.40
47354;DHT22;50657;48.830;2.282;2022-12-07T14:54:48;19.20;45.00
47354;DHT22;50657;48.830;2.282;2022-12-07T14:57:16;19.20;44.50
47354;DHT22;50657;48.830;2.282;2022-12-07T14:59:43;19.10;44.50
47354;DHT22;50657;48.830;2.282;2022-12-07T15:02:13;19.20;45.20
47354;DHT22;50657;48.830;2.282;2022-12-07T15:04:41;19.10;44.60
47354;DHT22;50657;48.830;2.282;2022-12-07T15:07:14;19.10;44.60
47354;DHT22;50657;48.830;2.282;2022-12-07T15:09:42;19.00;44.60
47354;DHT22;50657;48.830;2.282;2022-12-07T15:12:09;19.00;44.70
47354;DHT22;50657;48.830;2.282;2022-12-07T15:14:36;18.90;44.70
47354;DHT22;50657;48.830;2.282;2022-12-07T15:17:03;18.90;44.80
47354;DHT22;50657;48.830;2.282;2022-12-07T15:19:32;18.90;44.90
47354;DHT22;50657;48.830;2.282;2022-12-07T15:21:59;18.90;44.80
47354;DHT22;50657;48.830;2.282;2022-12-07T15:24:26;18.80;44.80
47354;DHT22;50657;48.830;2.282;2022-12-07T15:26:53;18.90;44.80
47354;DHT22;50657;48.830;2.282;2022-12-07T15:29:20;18.80;44.80
47354;DHT22;50657;48.830;2.282;2022-12-07T15:31:48;18.80;45.50
47354;DHT22;50657;48.830;2.282;2022-12-07T15:34:15;18.70;44.90
47354;DHT22;50657;48.830;2.282;2022-12-07T15:36:44;18.70;44.80
47354;DHT22;50657;48.830;2.282;2022-12-07T15:39:11;18.70;44.90
47354;DHT22;50657;48.830;2.282;2022-12-07T15:41:38;18.70;45.00
47354;DHT22;50657;48.830;2.282;2022-12-07T15:44:05;18.70;45.10
47354;DHT22;50657;48.830;2.282;2022-12-07T15:46:50;18.60;45.00
47354;DHT22;50657;48.830;2.282;2022-12-07T15:49:18;18.60;45.10
47354;DHT22;50657;48.830;2.282;2022-12-07T15:51:47;18.60;45.20
47354;DHT22;50657;48.830;2.282;2022-12-07T15:54:18;18.60;45.20
47354;DHT22;50657;48.830;2.282;2022-12-07T15:56:45;18.50;45.30
47354;DHT22;50657;48.830;2.282;2022-12-07T15:59:12;18.50;45.30
47354;DHT22;50657;48.830;2.282;2022-12-07T16:01:39;18.50;45.30
47354;DHT22;50657;48.830;2.282;2022-12-07T16:04:07;18.40;46.00
47354;DHT22;50657;48.830;2.282;2022-12-07T16:06:34;18.40;45.30